AirNav   TITAN Aviation Fuels
 
 1580 users online  

2WA8 Kramer Ranch Airport
Harrington, Washington, USA

GOING TO HARRINGTON?


FAA INFORMATION EFFECTIVE 04 NOVEMBER 2021

Location

FAA Identifier: 2WA8
Lat/Long: 47-23-01.3000N 118-17-52.9200W
47-23.021667N 118-17.882000W
47.3836944,-118.2980333
(estimated)
Elevation: 2181 ft. / 665 m (estimated)
Variation: 19E (1985)
From city: 6 miles SW of HARRINGTON, WA
Time zone: UTC -8 (UTC -7 during Daylight Saving Time)
Zip code: 99134

Airport Operations

Airport use: Private use. Permission required prior to landing
Activation date: 04/1966
Control tower: no
ARTCC: SEATTLE CENTER
FSS: SEATTLE FLIGHT SERVICE STATION
Attendance: UNATNDD
Wind indicator: yes
Segmented circle: no
Lights: SS-SR

Nearby radio navigation aids

VOR radial/distance  VOR name  Freq  Var
GEGr227/29.3SPOKANE VORTAC115.5021E

Airport Services

Airframe service: NONE
Powerplant service: NONE

Runway Information

Runway 2/20

Dimensions: 3000 x 60 ft. / 914 x 18 m
Surface: gravel
Runway edge lights: low intensity
RUNWAY 2  RUNWAY 20
Traffic pattern: leftleft

Airport Ownership and Management from official FAA records

Ownership: Privately-owned
Owner: R A KRAMER
BOX 127
HARRINGTON, WA 99134-0127
Phone 509-253-4658

Airport Operational Statistics

Aircraft based on the field: 1
Multi engine airplanes: 1
    

Additional Remarks

FOR CD CTC GRANT COUNTY APCH AT 509-762-2842, WHEN APCH CLSD CTC SEATTLE ARTCC AT 253-351-3694.

Instrument Procedures

There are no published instrument procedures at 2WA8.

Some nearby airports with instrument procedures:

2S8 - Wilbur Airport (29 nm NW)
KSKA - Fairchild Air Force Base (30 nm NE)
KGEG - Spokane International Airport (34 nm NE)
KMWH - Grant County International Airport (43 nm W)
KSFF - Felts Field Airport (43 nm NE)
 
Loc | Ops | Rwys | IFR | FBO | Links
Com | Nav | Svcs | Stats | Notes
Area around 2WA8 (Kramer Ranch Airport)
 
Road maps at: MapQuest Bing Google
 
Aerial photo
No photo
 
Sectional chart

 
Airport distance calculator
Flying to Kramer Ranch Airport? Find the distance to fly.

From to 2WA8

Sunrise and sunset
Times for 29-Nov-2021
 Local
(UTC-8)
 Zulu
(UTC)
Morning civil twilight06:4314:43
Sunrise07:1815:18
Sunset16:0500:05
Evening civil twilight16:4000:40

Current date and time
Zulu (UTC)  29-Nov-2021 23:59:22
Local (UTC-8)  29-Nov-2021 15:59:22
 
METAR
KSKA 
30nm NE 
292258Z 18008KT 10SM FEW024 SCT030 BKN040 11/10 A3020 RMK AO2A SLP236 T01050103 $
KGEG 
34nm NE 
292353Z 19007KT 10SM FEW020 SCT032 10/07 A3024 RMK AO2 SLP245 T01000072 10117 20083 53010
KMWH 
43nm W 
292352Z 22006KT 10SM CLR 14/05 A3022 RMK AO2 SLP233 T01440050 10172 20122 53008
KSFF 
44nm NE 
292353Z 21004KT 10SM FEW027 SCT033 11/07 A3024 RMK AO2 SLP241 T01110072 10133 20100 53010
KDEW 
49nm NE 
292353Z AUTO 17003KT 10SM CLR 09/06 A3023 RMK AO2 SLP245 T00940056 10117 20083 53008
KEPH 
50nm W 
292353Z AUTO 21009KT 10SM CLR 13/05 A3020 RMK AO2 SLP229 T01280050 10167 20100 53008
TAF
KSKA 
30nm NE 
291900Z 2919/0101 20012KT 9999 SCT010 BKN080 620804 QNH3017INS BECMG 3000/3001 19009KT 9999 BKN008 OVC025 620405 QNH3023INS BECMG 3008/3009 20012KT 9999 FEW008 BKN025 OVC160 QNH3010INS BECMG 3015/3016 20012G20KT 9999 VCSH OVC012 620806 QNH3006INS TX10/2923Z TN06/3011Z
KGEG 
34nm NE 
291737Z 2918/3018 19004KT P6SM VCSH BKN010 OVC120 FM292100 24009KT P6SM BKN030 FM300200 19008KT P6SM BKN020 FM300900 18008KT P6SM OVC250 FM301600 20010KT P6SM OVC020
NOTAMs
Click for the latest NOTAMs
NOTAMs are issued by the DoD/FAA and will open in a separate window not controlled by AirNav.

 

 
 

Would you like to see your business listed on this page?

 If your business provides an interesting product or service to pilots, flight crews, aircraft, or users of the Kramer Ranch Airport, you should consider listing it here.  To start the listing process, click on the button below
 
Add a business
 

Other Pages about Kramer Ranch Airport

Update a link
 
Copyright © AirNav, LLC. All rights reserved. Privacy Policy  Contact